createdAt,value
2019-05-11T00:00:30.139Z,4.87
2019-05-11T00:02:58.779Z,5.13
2019-05-11T00:05:27.421Z,5.43
2019-05-11T00:07:56.123Z,5.67
2019-05-11T00:10:24.765Z,4.93
2019-05-11T00:12:53.401Z,4.63
2019-05-11T00:15:22.049Z,5.03
2019-05-11T00:17:50.696Z,5.47
2019-05-11T00:20:19.346Z,4.97
2019-05-11T00:22:47.976Z,4.10
2019-05-11T00:25:16.619Z,4.40
2019-05-11T00:27:45.320Z,4.63
2019-05-11T00:30:14.141Z,4.57
2019-05-11T00:32:42.760Z,4.40
2019-05-11T00:35:11.606Z,4.30
2019-05-11T00:37:40.273Z,5.00
2019-05-11T00:40:14.483Z,6.67
2019-05-11T00:42:39.602Z,6.00
2019-05-11T00:45:08.348Z,14.43
2019-05-11T00:47:37.053Z,6.00
2019-05-11T00:50:08.091Z,5.47
2019-05-11T00:52:36.738Z,5.87
2019-05-11T00:55:06.775Z,5.47
2019-05-11T00:57:35.430Z,5.77
2019-05-11T01:00:05.028Z,4.57
2019-05-11T01:02:33.670Z,4.50
2019-05-11T01:05:02.330Z,4.73
2019-05-11T01:07:30.946Z,4.60
2019-05-11T01:09:59.593Z,5.00
2019-05-11T01:12:28.235Z,4.50
2019-05-11T01:14:56.868Z,4.63
2019-05-11T01:17:25.515Z,4.37
2019-05-11T01:19:54.158Z,4.57
2019-05-11T01:22:22.814Z,4.70
2019-05-11T01:24:51.448Z,4.30
2019-05-11T01:27:20.118Z,4.20
2019-05-11T01:29:48.758Z,4.63
2019-05-11T01:32:17.399Z,4.50
2019-05-11T01:34:46.038Z,5.10
2019-05-11T01:37:14.670Z,4.40
2019-05-11T01:39:43.328Z,4.73
2019-05-11T01:42:11.970Z,5.33
2019-05-11T01:44:40.606Z,4.93
2019-05-11T01:47:09.304Z,5.30
2019-05-11T01:49:38.046Z,5.43
2019-05-11T01:52:06.690Z,5.27
2019-05-11T01:54:35.326Z,5.37
2019-05-11T01:57:03.967Z,5.60
2019-05-11T01:59:32.634Z,5.20
2019-05-11T02:02:01.269Z,5.60
2019-05-11T02:04:29.918Z,5.67
2019-05-11T02:06:58.849Z,5.70
2019-05-11T02:09:28.031Z,6.07
2019-05-11T02:11:56.664Z,6.40
2019-05-11T02:14:25.301Z,6.43
2019-05-11T02:16:53.945Z,6.53
2019-05-11T02:19:22.582Z,7.37
2019-05-11T02:21:51.240Z,6.90
2019-05-11T02:24:19.797Z,6.27
2019-05-11T02:26:48.446Z,6.30
2019-05-11T02:29:17.090Z,16.27
2019-05-11T02:31:45.743Z,18.23
2019-05-11T02:34:14.388Z,13.47
2019-05-11T02:36:43.052Z,10.67
2019-05-11T02:39:11.691Z,9.20
2019-05-11T02:41:40.344Z,12.43
2019-05-11T02:44:08.981Z,7.50
2019-05-11T02:46:37.701Z,7.10
2019-05-11T02:49:06.481Z,8.50
2019-05-11T02:51:35.824Z,10.47
2019-05-11T02:54:04.658Z,8.67
2019-05-11T02:56:33.292Z,7.03
2019-05-11T02:59:01.941Z,8.80
2019-05-11T03:01:30.559Z,6.87
2019-05-11T03:03:59.201Z,15.93
2019-05-11T03:06:27.858Z,8.30
2019-05-11T03:08:56.493Z,15.67
2019-05-11T03:11:25.130Z,11.10
2019-05-11T03:13:53.695Z,9.83
2019-05-11T03:16:22.320Z,6.20
2019-05-11T03:18:50.966Z,3.70
2019-05-11T03:21:19.603Z,12.20
2019-05-11T03:23:48.282Z,4.70
2019-05-11T03:26:16.987Z,36.90
2019-05-11T03:28:45.646Z,6.40
2019-05-11T03:31:14.285Z,10.47
2019-05-11T03:33:42.924Z,15.53
2019-05-11T03:36:11.558Z,5.20
2019-05-11T03:38:40.249Z,4.57
2019-05-11T03:41:08.882Z,4.60
2019-05-11T03:43:37.597Z,5.33
2019-05-11T03:46:06.242Z,5.03
2019-05-11T03:48:34.884Z,4.50
2019-05-11T03:51:03.543Z,4.27
2019-05-11T03:53:32.161Z,7.63
2019-05-11T03:56:00.808Z,9.87
2019-05-11T03:58:29.455Z,10.63
2019-05-11T04:00:58.099Z,10.97
2019-05-11T04:03:26.819Z,23.00
2019-05-11T04:05:55.476Z,14.63
2019-05-11T04:08:24.143Z,14.20
2019-05-11T04:10:52.759Z,13.60
2019-05-11T04:13:21.412Z,13.60
2019-05-11T04:15:50.084Z,15.53
2019-05-11T04:18:18.657Z,10.37
2019-05-11T04:20:47.281Z,9.00
2019-05-11T04:23:15.920Z,7.60
2019-05-11T04:25:44.678Z,7.20
2019-05-11T04:28:13.318Z,7.40
2019-05-11T04:30:41.953Z,5.27
2019-05-11T04:33:10.585Z,6.90
2019-05-11T04:35:39.247Z,9.23
2019-05-11T04:38:07.877Z,7.47
2019-05-11T04:40:36.449Z,6.63
2019-05-11T04:43:05.072Z,6.20
2019-05-11T04:45:33.701Z,5.40
2019-05-11T04:48:02.344Z,5.97
2019-05-11T04:50:30.903Z,5.97
2019-05-11T04:52:59.395Z,6.33
2019-05-11T04:55:28.117Z,6.50
2019-05-11T04:57:56.710Z,6.20
2019-05-11T05:00:25.363Z,34.47
2019-05-11T05:02:53.989Z,7.70
2019-05-11T05:05:22.630Z,6.07
2019-05-11T05:07:51.265Z,7.17
2019-05-11T05:10:22.262Z,8.43
2019-05-11T05:12:51.328Z,7.60
2019-05-11T05:15:20.637Z,7.53
2019-05-11T05:17:49.275Z,7.23
2019-05-11T05:20:18.081Z,7.50
2019-05-11T05:22:46.742Z,7.60
2019-05-11T05:25:15.442Z,7.90
2019-05-11T05:27:44.049Z,10.23
2019-05-11T05:30:13.006Z,10.23
2019-05-11T05:32:41.641Z,9.10
2019-05-11T05:35:11.080Z,10.70
2019-05-11T05:37:39.734Z,10.60
2019-05-11T05:40:08.579Z,9.87
2019-05-11T05:42:37.214Z,10.80
2019-05-11T05:45:08.923Z,9.77
2019-05-11T05:47:37.569Z,11.67
2019-05-11T05:50:08.629Z,11.37
2019-05-11T05:52:37.399Z,10.77
2019-05-11T05:55:07.038Z,10.27
2019-05-11T05:57:35.827Z,9.03
2019-05-11T06:00:08.242Z,9.77
2019-05-11T06:02:36.908Z,11.83
2019-05-11T06:05:09.909Z,12.10
2019-05-11T06:07:38.830Z,11.23
2019-05-11T06:10:08.314Z,13.87
2019-05-11T06:12:36.974Z,10.40
2019-05-11T06:15:07.328Z,9.90
2019-05-11T06:17:36.148Z,9.53
2019-05-11T06:20:06.704Z,9.70
2019-05-11T06:22:37.333Z,10.03
2019-05-11T06:25:06.898Z,8.70
2019-05-11T06:27:36.293Z,9.43
2019-05-11T06:30:07.693Z,6.50
2019-05-11T06:32:36.467Z,5.30
2019-05-11T06:35:08.818Z,4.83
2019-05-11T06:37:37.554Z,3.77
2019-05-11T06:40:10.053Z,1.90
2019-05-11T06:42:38.734Z,2.50
2019-05-11T06:45:08.013Z,1.90
2019-05-11T06:47:38.249Z,1.80
2019-05-11T06:50:11.853Z,2.63
2019-05-11T06:52:40.585Z,4.20
2019-05-11T06:55:09.327Z,1.67
2019-05-11T06:57:37.956Z,1.50
2019-05-11T07:00:07.194Z,2.00
2019-05-11T07:02:35.811Z,2.10
2019-05-11T07:05:06.396Z,1.77
2019-05-11T07:07:46.972Z,1.57
2019-05-11T07:10:09.467Z,1.70
2019-05-11T07:12:38.206Z,3.57
2019-05-11T07:15:09.105Z,2.60
2019-05-11T07:17:39.386Z,1.97
2019-05-11T07:20:10.017Z,2.90
2019-05-11T07:22:38.716Z,4.90
2019-05-11T07:25:07.718Z,4.43
2019-05-11T07:27:38.111Z,3.93
2019-05-11T07:30:10.779Z,3.80
2019-05-11T07:32:41.370Z,3.00
2019-05-11T07:35:10.024Z,1.60
2019-05-11T07:37:38.941Z,2.00
2019-05-11T07:40:09.547Z,1.70
2019-05-11T07:42:41.279Z,1.60
2019-05-11T07:45:12.259Z,1.40
2019-05-11T07:47:42.563Z,1.50
2019-05-11T07:50:13.647Z,1.30
2019-05-11T07:52:43.097Z,3.10
2019-05-11T07:55:11.980Z,1.73
2019-05-11T07:57:42.252Z,1.67
2019-05-11T08:00:12.097Z,2.40
2019-05-11T08:02:42.372Z,1.20
2019-05-11T08:05:11.529Z,1.03
2019-05-11T08:07:40.329Z,1.27
2019-05-11T08:10:09.980Z,2.90
2019-05-11T08:12:40.063Z,2.27
2019-05-11T08:15:13.255Z,4.63
2019-05-11T08:17:39.793Z,1.60
2019-05-11T08:20:08.793Z,1.63
2019-05-11T08:22:37.864Z,1.90
2019-05-11T08:25:09.290Z,1.60
2019-05-11T08:27:38.348Z,1.03
2019-05-11T08:30:12.716Z,1.20
2019-05-11T08:32:42.534Z,1.00
2019-05-11T08:35:11.615Z,1.40
2019-05-11T08:37:41.001Z,2.20
2019-05-11T08:40:10.195Z,1.10
2019-05-11T08:42:38.964Z,1.30
2019-05-11T08:45:19.537Z,1.00
2019-05-11T08:47:39.347Z,1.70
2019-05-11T08:50:08.474Z,2.10
2019-05-11T08:52:38.721Z,1.20
2019-05-11T08:55:08.478Z,1.30
2019-05-11T08:57:38.726Z,1.20
2019-05-11T09:00:09.503Z,3.77
2019-05-11T09:02:46.627Z,1.00
2019-05-11T09:05:18.783Z,1.17
2019-05-11T09:07:48.561Z,3.20
2019-05-11T09:10:18.524Z,1.20
2019-05-11T09:12:48.866Z,0.90
2019-05-11T09:15:32.534Z,1.73
2019-05-11T09:17:49.641Z,1.20
2019-05-11T09:20:20.025Z,1.60
2019-05-11T09:22:48.923Z,1.20
2019-05-11T09:25:18.476Z,0.90
2019-05-11T09:27:48.916Z,1.37
2019-05-11T09:30:20.142Z,2.70
2019-05-11T09:32:49.090Z,0.87
2019-05-11T09:35:18.943Z,0.80
2019-05-11T09:37:48.535Z,1.17
2019-05-11T09:40:19.454Z,1.20
2019-05-11T09:42:48.452Z,1.30
2019-05-11T09:45:18.998Z,1.10
2019-05-11T09:47:51.386Z,0.83
2019-05-11T09:50:20.182Z,1.80
2019-05-11T09:52:50.615Z,0.60
2019-05-11T09:55:19.473Z,3.03
2019-05-11T09:57:49.063Z,0.93
2019-05-11T10:00:19.105Z,1.37
2019-05-11T10:02:49.174Z,1.03
2019-05-11T10:05:18.864Z,1.10
2019-05-11T10:07:48.477Z,1.77
2019-05-11T10:10:18.620Z,1.53
2019-05-11T10:12:48.575Z,6.00
2019-05-11T10:15:19.369Z,0.83
2019-05-11T10:17:48.404Z,1.63
2019-05-11T10:20:18.180Z,0.90
2019-05-11T10:22:49.623Z,1.30
2019-05-11T10:25:18.500Z,1.10
2019-05-11T10:27:49.496Z,2.33
2019-05-11T10:30:19.368Z,2.33
2019-05-11T10:32:54.053Z,1.20
2019-05-11T10:35:23.708Z,0.60
2019-05-11T10:37:52.541Z,0.80
2019-05-11T10:40:21.327Z,2.23
2019-05-11T10:42:50.901Z,1.40
2019-05-11T10:45:22.380Z,3.50
2019-05-11T10:47:57.289Z,0.80
2019-05-11T10:50:23.771Z,2.43
2019-05-11T10:52:54.339Z,2.50
2019-05-11T10:55:23.319Z,1.37
2019-05-11T10:57:58.082Z,1.03
2019-05-11T11:00:28.293Z,0.90
2019-05-11T11:02:58.141Z,2.40
2019-05-11T11:05:27.934Z,1.43
2019-05-11T11:07:58.849Z,1.40
2019-05-11T11:10:29.609Z,0.97
2019-05-11T11:13:00.042Z,1.10
2019-05-11T11:15:29.038Z,1.60
2019-05-11T11:17:58.049Z,1.50
2019-05-11T11:20:28.058Z,1.50
2019-05-11T11:22:58.320Z,1.00
2019-05-11T11:25:28.414Z,1.30
2019-05-11T11:27:57.927Z,1.50
2019-05-11T11:30:29.370Z,2.20
2019-05-11T11:32:58.755Z,1.10
2019-05-11T11:35:29.395Z,1.73
2019-05-11T11:37:59.730Z,2.03
2019-05-11T11:40:28.490Z,2.00
2019-05-11T11:42:58.132Z,2.17
2019-05-11T11:45:28.841Z,3.13
2019-05-11T11:47:58.149Z,2.03
2019-05-11T11:50:28.391Z,1.10
2019-05-11T11:52:58.757Z,1.67
2019-05-11T11:55:29.119Z,1.40
2019-05-11T11:57:58.917Z,1.90
2019-05-11T12:00:28.872Z,1.20
2019-05-11T12:02:58.151Z,1.40
2019-05-11T12:05:28.484Z,1.30
2019-05-11T12:07:58.026Z,1.30
2019-05-11T12:10:29.092Z,2.37
2019-05-11T12:12:59.587Z,1.47
2019-05-11T12:15:28.508Z,3.43
2019-05-11T12:17:58.840Z,1.93
2019-05-11T12:20:28.776Z,1.20
2019-05-11T12:22:58.226Z,0.80
2019-05-11T12:25:28.349Z,1.10
2019-05-11T12:27:57.864Z,2.73
2019-05-11T12:30:28.523Z,1.20
2019-05-11T12:32:58.438Z,1.60
2019-05-11T12:35:28.492Z,1.77
2019-05-11T12:38:00.169Z,1.30
2019-05-11T12:40:28.940Z,1.30
2019-05-11T12:42:59.176Z,1.10
2019-05-11T12:45:29.539Z,2.50
2019-05-11T12:48:01.018Z,1.80
2019-05-11T12:50:29.841Z,2.20
2019-05-11T12:52:58.923Z,1.63
2019-05-11T12:55:28.602Z,1.03
2019-05-11T12:57:58.780Z,1.40
2019-05-11T13:00:31.386Z,1.63
2019-05-11T13:02:59.826Z,5.17
2019-05-11T13:05:30.162Z,1.40
2019-05-11T13:07:58.954Z,1.37
2019-05-11T13:10:30.724Z,1.30
2019-05-11T13:13:02.576Z,1.30
2019-05-11T13:15:30.023Z,1.27
2019-05-11T13:17:58.878Z,1.10
2019-05-11T13:20:28.614Z,1.53
2019-05-11T13:22:58.981Z,1.57
2019-05-11T13:25:28.326Z,0.97
2019-05-11T13:27:58.248Z,1.53
2019-05-11T13:30:29.009Z,1.70
2019-05-11T13:32:58.714Z,1.20
2019-05-11T13:35:28.470Z,1.50
2019-05-11T13:38:01.138Z,4.37
2019-05-11T13:40:31.277Z,1.90
2019-05-11T13:43:00.014Z,2.23
2019-05-11T13:45:30.152Z,0.83
2019-05-11T13:47:59.849Z,1.10
2019-05-11T13:50:31.345Z,0.90
2019-05-11T13:53:01.586Z,1.47
2019-05-11T13:55:30.347Z,0.90
2019-05-11T13:57:59.174Z,1.40
2019-05-11T14:00:29.613Z,1.10
2019-05-11T14:03:00.062Z,1.13
2019-05-11T14:05:29.716Z,1.30
2019-05-11T14:07:59.812Z,13.73
2019-05-11T14:10:31.539Z,1.60
2019-05-11T14:13:01.426Z,1.30
2019-05-11T14:15:30.165Z,1.20
2019-05-11T14:18:08.249Z,1.40
2019-05-11T14:20:31.349Z,1.20
2019-05-11T14:23:00.147Z,1.43
2019-05-11T14:25:30.933Z,0.83
2019-05-11T14:28:01.021Z,1.77
2019-05-11T14:30:31.105Z,2.00
2019-05-11T14:33:00.004Z,2.07
2019-05-11T14:35:29.885Z,0.93
2019-05-11T14:37:58.921Z,8.33
2019-05-11T14:40:28.240Z,2.07
2019-05-11T14:42:58.038Z,0.93
2019-05-11T14:45:28.946Z,2.37
2019-05-11T14:47:58.214Z,1.53
2019-05-11T14:50:28.346Z,1.50
2019-05-11T14:52:59.158Z,3.13
2019-05-11T14:55:29.371Z,1.60
2019-05-11T14:57:59.413Z,1.13
2019-05-11T15:00:29.028Z,1.70
2019-05-11T15:02:59.625Z,0.90
2019-05-11T15:05:29.182Z,1.93
2019-05-11T15:07:58.263Z,4.27
2019-05-11T15:10:29.283Z,0.93
2019-05-11T15:12:59.276Z,1.37
2019-05-11T15:15:31.113Z,1.20
2019-05-11T15:17:59.896Z,1.27
2019-05-11T15:39:28.720Z,2.00
2019-05-11T15:49:11.101Z,0.80
2019-05-11T15:52:26.384Z,1.77
2019-05-11T15:55:43.929Z,2.47
2019-05-11T15:58:14.255Z,1.47
2019-05-11T16:00:42.849Z,1.70
2019-05-11T16:03:11.466Z,1.30
2019-05-11T16:05:40.122Z,1.20
2019-05-11T16:08:08.786Z,1.47
2019-05-11T16:10:38.430Z,5.70
2019-05-11T16:13:09.234Z,4.23
2019-05-11T16:15:38.394Z,3.33
2019-05-11T16:18:08.361Z,3.23
2019-05-11T16:20:37.096Z,1.60
2019-05-11T16:23:05.696Z,2.60
2019-05-11T16:25:34.322Z,3.00
2019-05-11T16:28:02.969Z,2.43
2019-05-11T16:30:31.706Z,2.17
2019-05-11T16:33:00.364Z,4.00
2019-05-11T16:35:29.003Z,3.93
2019-05-11T16:37:59.106Z,1.50
2019-05-11T16:40:29.548Z,1.83
2019-05-11T16:42:58.874Z,1.90
2019-05-11T16:45:28.183Z,2.10
2019-05-11T16:47:58.921Z,1.90
2019-05-11T16:50:28.191Z,1.30
2019-05-11T16:52:58.492Z,1.80
2019-05-11T16:55:27.336Z,1.50
2019-05-11T16:57:58.609Z,2.17
2019-05-11T17:00:26.359Z,9.47
2019-05-11T17:02:54.991Z,8.03
2019-05-11T17:05:26.879Z,2.73
2019-05-11T17:07:58.593Z,3.30
2019-05-11T17:10:28.413Z,3.30
2019-05-11T17:12:58.124Z,4.13
2019-05-11T17:15:28.715Z,5.17
2019-05-11T17:17:58.723Z,3.10
2019-05-11T17:20:27.800Z,2.40
2019-05-11T17:22:56.496Z,2.30
2019-05-11T17:25:28.869Z,2.60
2019-05-11T17:27:58.800Z,2.47
2019-05-11T17:30:28.011Z,4.30
2019-05-11T17:32:59.174Z,3.13
2019-05-11T17:35:27.053Z,3.60
2019-05-11T17:37:55.693Z,3.57
2019-05-11T17:40:24.328Z,3.63
2019-05-11T17:42:54.082Z,8.97
2019-05-11T17:45:22.989Z,11.70
2019-05-11T17:47:51.631Z,14.03
2019-05-11T17:50:20.266Z,10.23
2019-05-11T17:52:48.939Z,8.08
2019-05-11T17:55:18.416Z,8.47
2019-05-11T17:57:49.490Z,8.70
2019-05-11T18:00:20.117Z,13.13
2019-05-11T18:02:49.027Z,8.50
2019-05-11T18:05:18.197Z,6.00
2019-05-11T18:07:47.032Z,5.90
2019-05-11T18:10:17.984Z,6.80
2019-05-11T18:12:48.555Z,6.70
2019-05-11T18:15:18.588Z,6.10
2019-05-11T18:17:48.429Z,14.77
2019-05-11T18:20:21.354Z,8.57
2019-05-11T18:22:49.075Z,10.70
2019-05-11T18:25:18.522Z,9.70
2019-05-11T18:27:48.270Z,6.73
2019-05-11T18:30:17.498Z,5.57
2019-05-11T18:32:48.586Z,4.50
2019-05-11T18:35:19.053Z,5.20
2019-05-11T18:37:47.774Z,5.23
2019-05-11T18:40:18.663Z,7.47
2019-05-11T18:42:48.812Z,8.97
2019-05-11T18:45:18.813Z,6.53
2019-05-11T18:47:49.053Z,9.13
2019-05-11T18:50:29.729Z,10.57
2019-05-11T18:52:49.138Z,8.20
2019-05-11T18:55:18.871Z,6.93
2019-05-11T18:57:48.956Z,6.67
2019-05-11T19:00:18.478Z,5.30
2019-05-11T19:02:49.529Z,5.00
2019-05-11T19:05:18.141Z,6.03
2019-05-11T19:07:48.253Z,6.87
2019-05-11T19:10:17.100Z,7.90
2019-05-11T19:12:48.407Z,7.30
2019-05-11T19:15:18.836Z,4.70
2019-05-11T19:17:49.085Z,6.30
2019-05-11T19:20:18.003Z,6.87
2019-05-11T19:22:46.805Z,6.93
2019-05-11T19:25:17.961Z,4.37
2019-05-11T19:27:50.362Z,2.80
2019-05-11T19:30:18.469Z,4.10
2019-05-11T19:32:48.736Z,5.40
2019-05-11T19:35:17.558Z,5.07
2019-05-11T19:37:48.722Z,5.80
2019-05-11T19:40:17.561Z,6.13
2019-05-11T19:42:54.121Z,4.50
2019-05-11T19:45:23.648Z,5.77
2019-05-11T19:47:52.273Z,5.63
2019-05-11T19:50:21.095Z,7.13
2019-05-11T19:52:49.839Z,7.57
2019-05-11T19:55:18.478Z,7.70
2019-05-11T19:57:48.285Z,5.20
2019-05-11T20:00:18.472Z,4.70
2019-05-11T20:02:47.346Z,4.27
2019-05-11T20:05:18.424Z,2.97
2019-05-11T20:07:48.625Z,2.80
2019-05-11T20:10:18.896Z,3.00
2019-05-11T20:12:48.536Z,3.53
2019-05-11T20:15:19.338Z,2.47
2019-05-11T20:17:48.803Z,2.77
2019-05-11T20:20:18.565Z,2.20
2019-05-11T20:22:48.356Z,3.20
2019-05-11T20:25:18.710Z,3.00
2019-05-11T20:27:48.594Z,2.73
2019-05-11T20:30:18.558Z,2.63
2019-05-11T20:32:48.552Z,2.40
2019-05-11T20:35:18.277Z,2.67
2019-05-11T20:37:47.054Z,3.30
2019-05-11T20:40:19.565Z,2.13
2019-05-11T20:42:50.646Z,2.37
2019-05-11T20:45:19.440Z,2.90
2019-05-11T20:47:48.922Z,2.33
2019-05-11T20:50:18.798Z,2.30
2019-05-11T20:52:48.232Z,2.43
2019-05-11T20:55:18.214Z,3.70
2019-05-11T20:57:48.393Z,2.97
2019-05-11T21:00:19.308Z,3.33
2019-05-11T21:02:49.015Z,3.87
2019-05-11T21:05:18.567Z,3.50
2019-05-11T21:07:47.402Z,3.47
2019-05-11T21:10:16.876Z,2.93
2019-05-11T21:12:45.619Z,3.03
2019-05-11T21:15:15.382Z,2.20
2019-05-11T21:17:43.988Z,3.83
2019-05-11T21:20:13.092Z,3.47
2019-05-11T21:22:41.833Z,2.17
2019-05-11T21:25:12.311Z,2.07
2019-05-11T21:27:41.046Z,1.93
2019-05-11T21:30:10.744Z,2.50
2019-05-11T21:32:40.296Z,2.37
2019-05-11T21:35:09.423Z,2.13
2019-05-11T21:37:39.077Z,2.40
2019-05-11T21:40:09.217Z,2.50
2019-05-11T21:42:38.874Z,2.70
2019-05-11T21:45:09.765Z,2.93
2019-05-11T21:47:39.679Z,2.77
2019-05-11T21:50:10.280Z,3.20
2019-05-11T21:52:39.107Z,3.47
2019-05-11T21:55:09.715Z,3.33
2019-05-11T21:57:38.661Z,3.70
2019-05-11T22:00:10.380Z,3.37
2019-05-11T22:02:39.209Z,3.73
2019-05-11T22:05:09.937Z,4.10
2019-05-11T22:07:41.983Z,3.80
2019-05-11T22:10:10.728Z,3.90
2019-05-11T22:12:39.535Z,5.23
2019-05-11T22:15:09.862Z,4.60
2019-05-11T22:17:39.819Z,5.10
2019-05-11T22:20:09.668Z,4.67
2019-05-11T22:22:39.288Z,4.80
2019-05-11T22:25:09.054Z,3.80
2019-05-11T22:27:38.774Z,4.03
2019-05-11T22:30:08.759Z,4.10
2019-05-11T22:32:38.407Z,3.90
2019-05-11T22:35:08.342Z,4.50
2019-05-11T22:37:38.809Z,4.80
2019-05-11T22:40:08.878Z,4.80
2019-05-11T22:42:38.063Z,4.77
2019-05-11T22:45:08.641Z,4.70
2019-05-11T22:47:39.389Z,5.30
2019-05-11T22:50:10.137Z,5.07
2019-05-11T22:52:40.279Z,4.90
2019-05-11T22:55:11.841Z,5.00
2019-05-11T22:57:40.789Z,5.17
2019-05-11T23:00:10.522Z,3.77
2019-05-11T23:02:39.257Z,3.50
2019-05-11T23:05:08.940Z,3.40
2019-05-11T23:07:41.490Z,3.40
2019-05-11T23:10:09.732Z,3.50
2019-05-11T23:12:38.737Z,3.87
2019-05-11T23:15:14.791Z,3.17
2019-05-11T23:17:43.550Z,2.87
2019-05-11T23:20:12.784Z,3.10
2019-05-11T23:22:56.669Z,2.53
2019-05-11T23:25:18.553Z,2.93
2019-05-11T23:27:48.548Z,3.10
2019-05-11T23:30:19.615Z,3.20
2019-05-11T23:32:50.834Z,3.30
2019-05-11T23:35:19.614Z,3.60
2019-05-11T23:37:50.149Z,3.50
2019-05-11T23:40:20.830Z,3.50
2019-05-11T23:42:49.599Z,2.90
2019-05-11T23:45:19.523Z,3.00
2019-05-11T23:47:49.176Z,3.17
2019-05-11T23:50:19.327Z,2.90
2019-05-11T23:52:53.395Z,3.47
2019-05-11T23:55:19.525Z,3.17
2019-05-11T23:57:48.977Z,3.20
